Flight Track Log - Related Links

Times and Time Zones

All times are in EDT time to prevent confusion due to time zone crossing. See the UAL407 flight status page for this flight to view local times or setup timezone preferences in your user account.

Time Position Orientation Groundspeed Altitude Reporting Facility
EDT Latitude Longitude Course Direction KTS MPH feet Rate Location/Type
Wed 06:14:52 PM 42.7256 -73.8108 282° West 124 143 1,500  Level Boston Center
Wed 06:16:03 PM 42.7478 -73.8736 296° West 257 296 3,400 2,427 Climbing Boston Center
Wed 06:17:00 PM 42.8067 -74.1865 284° West  Level FlightAware Approximate
Wed 06:17:03 PM 42.8078 -73.9117 335° Northwest 268 308 6,800  Level Boston Center
Wed 06:18:00 PM 42.8304 -74.3173 284° West  Level FlightAware Approximate
Wed 06:18:03 PM 42.8739 -73.9500 337° Northwest 268 308 10,100  Level Boston Center
Wed 06:19:00 PM 42.8526 -74.4486 283° West  Level FlightAware Approximate
Wed 06:19:03 PM 42.9353 -74.0253 318° Northwest 262 302 13,100  Level Boston Center
Wed 06:20:00 PM 42.8864 -74.5692 282° West  Level FlightAware Approximate
Wed 06:20:03 PM 42.9756 -74.1258 299° West 309 356 15,200  Level Boston Center
Wed 06:21:03 PM 43.0297 -74.2636 298° West 364 419 18,200 2,600 Climbing Boston Center
Wed 06:22:03 PM 43.0800 -74.3844 300° West 383 441 20,400 1,700 Climbing Boston Center
Wed 06:23:03 PM 43.1358 -74.5256 299° West 402 463 21,600 1,800 Climbing Boston Center
Wed 06:24:03 PM 43.1767 -74.6836 290° West 422 486 24,000 2,100 Climbing Boston Center
Wed 06:25:03 PM 43.2025 -74.8442 282° West 433 498 25,800 1,800 Climbing Boston Center
Wed 06:26:03 PM 43.2092 -75.0097 273° West 438 504 27,600 1,950 Climbing Boston Center
Wed 06:27:03 PM 43.2117 -75.1778 271° West 443 510 29,700 1,850 Climbing Boston Center
Wed 06:28:03 PM 43.2092 -75.3631 269° West 443 510 31,300 1,500 Climbing Boston Center
Wed 06:29:03 PM 43.2108 -75.5311 271° West 443 510 32,700 1,200 Climbing Boston Center
Wed 06:30:03 PM 43.2114 -75.6650 270° West 443 510 33,700 650 Climbing Boston Center
Wed 06:31:03 PM 43.2094 -75.8758 269° West 443 510 34,000 150 Climbing Boston Center
Wed 06:32:03 PM 43.2078 -76.0639 269° West 468 539 34,000  Level Boston Center
Wed 06:33:57 PM 43.1833 -76.3833 264° West 490 564 34,000  Level Toronto Center
Wed 06:34:57 PM 43.1833 -76.5667 270° West 490 564 34,000  Level Toronto Center
Wed 06:35:46 PM 43.1953 -76.7583 275° West 501 577 34,000  Level Cleveland Center
Wed 06:36:46 PM 43.1931 -76.9467 269° West 501 577 34,000  Level Cleveland Center
Wed 06:37:46 PM 43.1883 -77.1347 268° West 501 577 34,000  Level Cleveland Center
Wed 06:38:46 PM 43.1856 -77.3258 269° West 501 577 34,000  Level Cleveland Center
Wed 06:39:46 PM 43.1822 -77.5139 269° West 501 577 34,000  Level Cleveland Center
Wed 06:40:46 PM 43.1767 -77.6964 268° West 496 571 34,000  Level Cleveland Center
Wed 06:41:46 PM 43.1728 -77.8817 268° West 496 571 34,000  Level Cleveland Center
Wed 06:42:46 PM 43.1683 -78.0611 268° West 490 564 34,000  Level Cleveland Center
Wed 06:43:46 PM 43.1617 -78.2381 267° West 478 550 34,000  Level Cleveland Center
Wed 06:45:46 PM 43.0806 -78.5736 252° West 461 531 34,000  Level Cleveland Center
Wed 06:46:46 PM 43.0311 -78.7400 248° West 473 544 34,000  Level Cleveland Center
Wed 06:47:46 PM 42.9836 -78.8947 247° West 479 551 34,000  Level Cleveland Center
Wed 06:48:57 PM 42.9333 -79.1167 253° West 480 552 34,000  Level Toronto Center
Wed 06:49:57 PM 42.9500 -79.2667 279° West 490 564 34,000  Level Toronto Center
Wed 06:50:57 PM 42.9500 -79.4667 270° West 490 564 34,000  Level Toronto Center
Wed 06:51:57 PM 42.9667 -79.6500 277° West 490 564 34,000  Level Toronto Center
Wed 06:52:57 PM 42.9667 -79.8333 270° West 490 564 34,000  Level Toronto Center
Wed 06:53:57 PM 42.9833 -80.0167 277° West 480 552 34,000  Level Toronto Center
Wed 06:54:57 PM 42.9833 -80.2000 270° West 480 552 34,000 550 Level Toronto Center
Wed 06:55:57 PM 43.0000 -80.3833 277° West 460 529 35,100 1,000 Climbing Toronto Center
Wed 06:56:57 PM 43.0000 -80.5500 270° West 450 518 36,000 450 Climbing Toronto Center
Wed 06:57:57 PM 43.0167 -80.7000 279° West 450 518 36,000  Level Toronto Center
Wed 06:58:57 PM 43.0000 -80.8833 263° West 440 506 36,000  Level Toronto Center
Wed 06:59:57 PM 43.0167 -81.0500 278° West 440 506 36,000  Level Toronto Center
Wed 07:00:57 PM 43.0167 -81.2333 270° West 440 506 36,000  Level Toronto Center
Wed 07:01:57 PM 43.0167 -81.3833 270° West 440 506 36,000  Level Toronto Center
Wed 07:02:57 PM 43.0167 -81.5500 270° West 440 506 36,000  Level Toronto Center
Wed 07:03:57 PM 43.0167 -81.7333 270° West 440 506 36,000  Level Toronto Center
Wed 07:04:57 PM 43.0167 -81.8833 270° West 440 506 36,000  Level Toronto Center
Wed 07:05:57 PM 43.0000 -82.0500 262° West 440 506 36,000  Level Toronto Center
Wed 07:06:57 PM 43.0000 -82.2167 270° West 430 495 36,000  Level Toronto Center
Wed 07:07:57 PM 43.0000 -82.3833 270° West 430 495 36,000  Level Toronto Center
Wed 07:08:57 PM 43.0000 -82.5500 270° West 430 495 36,000  Level Toronto Center
Wed 07:09:46 PM 43.0014 -82.6925 271° West 440 506 36,000 -220 Level Cleveland Center
Wed 07:10:46 PM 42.9983 -82.8597 269° West 440 506 35,600 -706 Descending Cleveland Center
Wed 07:11:45 PM 42.9928 -83.0300 268° West 440 506 34,600 -800 Descending Cleveland Center
Wed 07:12:46 PM 42.9869 -83.2000 267° West 445 512 34,000 -350 Descending Cleveland Center
Wed 07:13:45 PM 42.9789 -83.3672 266° West 445 512 33,900 -700 Descending Cleveland Center
Wed 07:14:46 PM 42.9747 -83.5372 268° West 445 512 32,600 -950 Descending Cleveland Center
Wed 07:15:45 PM 42.9658 -83.7100 266° West 450 518 32,000 -300 Descending Cleveland Center
Wed 07:16:46 PM 42.9528 -83.8794 264° West 450 518 32,000  Level Cleveland Center
Wed 07:17:45 PM 42.9375 -84.0517 263° West 455 524 32,000  Level Cleveland Center
Wed 07:18:45 PM 42.9197 -84.2236 262° West 467 537 32,000  Level Cleveland Center
Wed 07:19:45 PM 42.9039 -84.3844 262° West 456 525 32,000  Level Cleveland Center
Wed 07:20:29 PM 42.8942 -84.4894 263° West 450 518 32,000  Level Chicago Center
Wed 07:21:31 PM 42.8764 -84.6578 262° West 451 519 32,000  Level Chicago Center
Wed 07:22:33 PM 42.8597 -84.8250 262° West 448 516 32,000  Level Chicago Center
Wed 07:23:35 PM 42.8383 -85.0239 262° West 443 510 32,000 -242 Level Chicago Center
Wed 07:24:37 PM 42.8203 -85.1903 262° West 443 510 31,500 -726 Descending Chicago Center
Wed 07:25:39 PM 42.8022 -85.3581 262° West 447 514 30,500 -968 Descending Chicago Center
Wed 07:26:41 PM 42.7825 -85.5256 261° West 448 516 29,500 -1,355 Descending Chicago Center
Wed 07:27:43 PM 42.7519 -85.6886 256° West 444 511 27,700 -2,160 Descending Chicago Center
Wed 07:28:46 PM 42.7228 -85.8525 256° West 442 509 25,000 -2,496 Descending Chicago Center
Wed 07:29:48 PM 42.6939 -86.0086 256° West 428 493 22,500 -2,419 Descending Chicago Center
Wed 07:30:50 PM 42.6617 -86.1894 256° West 411 473 20,000 -1,548 Descending Chicago Center
Wed 07:31:52 PM 42.6328 -86.3381 255° West 407 468 19,300 -1,306 Descending Chicago Center
Wed 07:32:54 PM 42.6056 -86.4814 256° West 395 455 17,300 -2,081 Descending Chicago Center
Wed 07:33:56 PM 42.5789 -86.6186 255° West 379 436 15,000 -2,274 Descending Chicago Center
Wed 07:34:58 PM 42.5547 -86.7517 256° West 367 422 12,600 -2,226 Descending Chicago Center
Wed 07:36:00 PM 42.5192 -86.8775 249° West 359 413 10,400 -1,306 Descending Chicago Center
Wed 07:37:02 PM 42.4881 -86.9906 250° West 332 382 9,900 -726 Descending Chicago Center
Wed 07:38:04 PM 42.4536 -87.1092 249° West 286 329 8,900 -435 Descending Chicago Center
Wed 07:39:06 PM 42.4267 -87.2097 250° West 283 326 9,000 -242 Climbing Chicago Center
Wed 07:40:08 PM 42.3906 -87.3033 242° Southwest 285 328 8,400 -726 Descending Chicago Center
Wed 07:41:10 PM 42.3472 -87.3853 234° Southwest 271 312 7,500 -677 Descending Chicago Center
Wed 07:42:12 PM 42.2969 -87.4828 235° Southwest 269 310 7,000 -484 Descending Chicago Center
Wed 07:43:14 PM 42.2539 -87.5650 235° Southwest 270 311 6,500 -968 Descending Chicago Center
Wed 07:44:16 PM 42.2111 -87.6461 235° Southwest 270 311 5,000 -1,500 Descending Chicago Center
Wed 07:45:18 PM 42.1603 -87.7144 225° Southwest 267 307 3,400 -1,548 Descending Chicago Center

Login

Don't have an account? Register now (free) for customized features, flight alerts, and more!